Time;durP1;ratioP1;P1;durP2;ratioP2;P2;SDS_P1;SDS_P2;PMS_P1;PMS_P2;Temp;Humidity;BMP_temperature;BMP_pressure;BME280_temperature;BME280_humidity;BME280_pressure;Samples;Min_cycle;Max_cycle;Signal;HPM_P1;HPM_P2
2024/02/23 00:02:19;;;;;;;2.97;0.70;;;;;;;4.95;100.00;94960.56;5004859;28;20496;-69
2024/02/23 00:04:45;;;;;;;0.50;0.50;;;;;;;5.01;100.00;94965.66;5011181;28;20046;-70
2024/02/23 00:07:11;;;;;;;2.22;0.70;;;;;;;4.93;100.00;94972.94;5014040;28;20135;-71
2024/02/23 00:09:36;;;;;;;1.42;0.50;;;;;;;5.04;100.00;94973.03;5014109;28;20041;-67
2024/02/23 00:12:02;;;;;;;1.00;0.70;;;;;;;5.11;100.00;94951.41;5017121;28;20056;-69
2024/02/23 00:14:28;;;;;;;0.70;0.50;;;;;;;5.13;100.00;94940.94;5025076;28;20053;-70
2024/02/23 00:16:53;;;;;;;0.50;0.50;;;;;;;5.13;100.00;94941.75;5018198;28;20049;-70
2024/02/23 00:19:20;;;;;;;0.43;0.43;;;;;;;5.07;100.00;94932.38;5001876;28;20048;-67
2024/02/23 00:21:50;;;;;;;2.10;0.60;;;;;;;4.98;100.00;94945.47;5007124;28;20054;-70
2024/02/23 00:24:16;;;;;;;;;;;;;;;5.00;100.00;94936.97;4996203;28;20050;-67
2024/02/23 00:26:42;;;;;;;0.40;0.40;;;;;;;4.92;100.00;94944.25;5019011;28;19928;-70
2024/02/23 00:29:07;;;;;;;1.30;0.60;;;;;;;4.87;100.00;94945.34;5010410;28;20492;-68
2024/02/23 00:31:32;;;;;;;0.57;0.50;;;;;;;4.90;100.00;94935.72;5020466;28;20057;-68
2024/02/23 00:33:58;;;;;;;0.50;0.50;;;;;;;4.83;100.00;94936.41;5007184;28;20440;-68
2024/02/23 00:36:23;;;;;;;0.50;0.50;;;;;;;4.90;100.00;94922.16;5002587;28;20053;-68
2024/02/23 00:38:49;;;;;;;0.50;0.50;;;;;;;4.95;100.00;94924.50;5011952;28;20045;-68
2024/02/23 00:41:14;;;;;;;2.75;0.50;;;;;;;4.96;100.00;94932.28;5015516;28;20136;-68
2024/02/23 00:43:40;;;;;;;0.40;0.40;;;;;;;4.92;100.00;94931.47;5018244;28;20052;-68
2024/02/23 00:46:07;;;;;;;2.42;0.60;;;;;;;4.93;100.00;94929.53;5026097;28;20132;-68
2024/02/23 00:48:33;;;;;;;1.85;0.60;;;;;;;4.93;100.00;94924.09;5041288;28;20144;-68
2024/02/23 00:50:58;;;;;;;1.10;0.70;;;;;;;4.86;100.00;94921.31;5036259;28;20108;-69
2024/02/23 00:53:24;;;;;;;1.48;0.50;;;;;;;4.83;100.00;94920.13;5010518;28;20131;-68
2024/02/23 00:55:49;;;;;;;0.50;0.50;;;;;;;4.81;100.00;94917.03;5008194;28;20072;-69
2024/02/23 00:58:15;;;;;;;1.38;0.60;;;;;;;4.76;100.00;94911.94;5011786;28;20053;-69
2024/02/23 01:00:41;;;;;;;0.88;0.57;;;;;;;4.78;100.00;94920.47;5019699;28;20419;-69
2024/02/23 01:03:07;;;;;;;1.20;0.60;;;;;;;4.83;100.00;94914.72;5018113;28;20038;-69
2024/02/23 01:05:32;;;;;;;1.13;0.60;;;;;;;4.78;100.00;94913.09;5029945;28;20073;-69
2024/02/23 01:07:58;;;;;;;0.50;0.50;;;;;;;4.83;100.00;94905.81;5014838;28;20052;-69
2024/02/23 01:10:23;;;;;;;0.90;0.60;;;;;;;4.84;100.00;94918.97;5012246;28;20055;-69
2024/02/23 01:12:49;;;;;;;0.60;0.55;;;;;;;4.91;100.00;94932.59;5028230;28;20061;-68
2024/02/23 01:15:14;;;;;;;2.22;0.60;;;;;;;4.92;100.00;94939.59;5013248;28;20045;-68
2024/02/23 01:17:39;;;;;;;0.50;0.50;;;;;;;4.88;100.00;94943.41;5022850;28;20682;-68
2024/02/23 01:20:05;;;;;;;0.98;0.50;;;;;;;4.85;100.00;94955.81;5039491;28;20057;-68
2024/02/23 01:22:31;;;;;;;0.57;0.52;;;;;;;4.87;100.00;94958.16;5022175;28;20068;-68
2024/02/23 01:24:57;;;;;;;0.60;0.60;;;;;;;4.91;100.00;94957.03;5015433;28;20463;-68
2024/02/23 01:27:22;;;;;;;1.52;0.60;;;;;;;5.00;100.00;94964.09;5012822;28;20056;-68
2024/02/23 01:29:48;;;;;;;2.15;0.50;;;;;;;4.95;100.00;94974.13;5008833;28;20045;-68
2024/02/23 01:32:14;;;;;;;0.60;0.60;;;;;;;5.05;100.00;94969.94;5006195;28;20046;-68
2024/02/23 01:34:39;;;;;;;0.52;0.50;;;;;;;5.00;100.00;94962.16;5007433;28;20295;-68
2024/02/23 01:37:04;;;;;;;0.77;0.63;;;;;;;5.06;100.00;94963.38;5016072;28;20053;-67
2024/02/23 01:39:30;;;;;;;1.23;0.63;;;;;;;5.10;100.00;94966.91;5021939;28;20141;-70
2024/02/23 01:41:55;;;;;;;0.50;0.50;;;;;;;5.07;100.00;94953.31;5021436;28;20613;-68
2024/02/23 01:44:21;;;;;;;0.50;0.50;;;;;;;5.10;100.00;94953.34;5019020;28;20369;-67
2024/02/23 01:46:47;;;;;;;0.88;0.65;;;;;;;5.14;100.00;94958.78;5015553;28;20050;-68
2024/02/23 01:49:13;;;;;;;0.60;0.60;;;;;;;5.16;100.00;94957.25;5005924;28;20037;-67
2024/02/23 01:51:39;;;;;;;0.98;0.60;;;;;;;5.24;100.00;94933.69;5008602;28;20077;-68
2024/02/23 01:54:05;;;;;;;1.40;0.70;;;;;;;5.24;100.00;94944.56;4997797;28;20128;-66
2024/02/23 01:56:32;;;;;;;0.70;0.68;;;;;;;5.24;100.00;94968.19;5020730;28;20673;-67
2024/02/23 01:58:58;;;;;;;1.73;0.75;;;;;;;5.09;100.00;94961.84;5020277;28;20180;-67
2024/02/23 02:01:24;;;;;;;1.05;0.57;;;;;;;4.95;100.00;94976.84;5023474;28;20396;-67
2024/02/23 02:03:50;;;;;;;1.65;0.60;;;;;;;4.85;100.00;94995.72;5013011;28;20045;-66
2024/02/23 02:06:15;;;;;;;1.25;0.60;;;;;;;4.77;100.00;95022.78;5017526;28;20045;-70
2024/02/23 02:08:41;;;;;;;0.68;0.50;;;;;;;4.64;100.00;95015.25;5018334;28;20076;-68
2024/02/23 02:11:06;;;;;;;0.55;0.55;;;;;;;4.53;100.00;95012.41;5003711;28;20098;-68
2024/02/23 02:13:32;;;;;;;1.45;0.65;;;;;;;4.36;100.00;95003.66;5014934;28;20104;-67
2024/02/23 02:16:02;;;;;;;1.48;0.70;;;;;;;4.40;100.00;95006.44;5013156;28;20033;-70
2024/02/23 02:18:27;;;;;;;1.00;0.60;;;;;;;4.32;100.00;95007.47;5018102;28;20053;-67
2024/02/23 02:20:57;;;;;;;0.50;0.50;;;;;;;4.17;100.00;95011.94;4998795;28;20042;-73
2024/02/23 02:23:23;;;;;;;2.70;0.70;;;;;;;4.15;100.00;95016.94;5014864;28;20828;-67
2024/02/23 02:25:56;;;;;;;2.20;0.63;;;;;;;4.11;100.00;95029.66;5020027;28;20140;-69
2024/02/23 02:28:22;;;;;;;1.63;0.68;;;;;;;4.08;100.00;95022.25;5013749;28;20064;-68
2024/02/23 02:30:55;;;;;;;0.95;0.60;;;;;;;3.99;100.00;95015.16;5018924;28;20049;-68
2024/02/23 02:33:21;;;;;;;0.55;0.55;;;;;;;3.94;100.00;95009.28;5005556;28;20046;-67
2024/02/23 02:35:46;;;;;;;1.33;0.80;;;;;;;3.82;100.00;95002.16;5014021;28;20504;-67
2024/02/23 02:38:12;;;;;;;2.05;0.60;;;;;;;3.87;100.00;95003.75;5007731;28;20056;-68
2024/02/23 02:40:38;;;;;;;0.60;0.60;;;;;;;3.72;100.00;95010.88;5019780;28;20045;-68
2024/02/23 02:43:03;;;;;;;0.70;0.60;;;;;;;3.73;100.00;95007.81;5007503;28;20049;-69
2024/02/23 02:45:29;;;;;;;1.85;0.65;;;;;;;3.67;100.00;95006.53;5028536;28;20614;-68
2024/02/23 02:47:56;;;;;;;0.77;0.60;;;;;;;3.70;100.00;95011.25;5021811;28;20040;-68
2024/02/23 02:50:21;;;;;;;0.57;0.57;;;;;;;3.75;100.00;95002.03;5022590;28;20135;-67
2024/02/23 02:52:47;;;;;;;1.33;0.73;;;;;;;3.69;100.00;94993.47;5046659;28;20048;-69
2024/02/23 02:55:12;;;;;;;1.27;0.60;;;;;;;3.76;100.00;94985.44;5029107;28;20131;-69
2024/02/23 02:57:38;;;;;;;1.92;0.65;;;;;;;3.71;100.00;94988.44;5030253;28;20408;-70
2024/02/23 03:00:05;;;;;;;1.27;0.70;;;;;;;3.80;100.00;95002.50;5023124;28;20464;-68
2024/02/23 03:02:33;;;;;;;0.68;0.68;;;;;;;3.75;100.00;95015.59;5023673;28;20684;-69
2024/02/23 03:04:59;;;;;;;1.90;0.65;;;;;;;3.79;100.00;94998.22;5013028;28;20041;-67
2024/02/23 03:07:24;;;;;;;1.35;0.75;;;;;;;3.63;100.00;95003.00;5025486;28;20049;-69
2024/02/23 03:09:50;;;;;;;1.08;0.70;;;;;;;3.71;100.00;94999.28;5019078;28;20060;-69
2024/02/23 03:12:17;;;;;;;2.20;0.80;;;;;;;3.74;100.00;95003.19;5030969;28;20049;-69
2024/02/23 03:14:42;;;;;;;1.05;0.60;;;;;;;3.76;100.00;95006.31;5019534;28;20583;-67
2024/02/23 03:17:11;;;;;;;1.35;0.98;;;;;;;3.75;100.00;95007.47;5013810;28;20045;-67
2024/02/23 03:19:37;;;;;;;1.05;0.70;;;;;;;3.75;100.00;95013.66;5019144;28;20037;-69
2024/02/23 03:22:03;;;;;;;3.03;0.70;;;;;;;3.69;100.00;95009.69;5033506;28;20048;-69
2024/02/23 03:24:28;;;;;;;2.53;0.75;;;;;;;3.65;100.00;95008.84;5019134;28;20037;-67
2024/02/23 03:26:55;;;;;;;2.85;0.80;;;;;;;3.68;100.00;95018.97;5027194;28;20042;-69
2024/02/23 03:29:22;;;;;;;2.35;0.77;;;;;;;3.65;100.00;95006.13;5012848;28;20412;-67
2024/02/23 03:31:47;;;;;;;1.50;0.80;;;;;;;3.56;100.00;95009.09;5009155;28;20048;-69
2024/02/23 03:34:13;;;;;;;2.72;0.80;;;;;;;3.62;100.00;95015.00;5024042;28;20108;-69
2024/02/23 03:36:38;;;;;;;1.95;0.80;;;;;;;3.62;100.00;95018.47;5026794;28;20037;-69
2024/02/23 03:39:04;;;;;;;2.20;0.75;;;;;;;3.63;100.00;95016.56;5006503;28;20107;-67
2024/02/23 03:41:29;;;;;;;3.05;0.90;;;;;;;3.69;100.00;95020.53;5030506;28;20136;-69
2024/02/23 03:43:55;;;;;;;2.70;0.77;;;;;;;3.76;100.00;95020.66;5022971;28;20053;-67
2024/02/23 03:46:21;;;;;;;6.53;0.77;;;;;;;3.70;100.00;95016.66;5021691;28;20247;-67
2024/02/23 03:48:46;;;;;;;0.98;0.70;;;;;;;3.64;100.00;95013.47;5018614;28;20572;-68
2024/02/23 03:51:12;;;;;;;3.60;1.13;;;;;;;3.67;100.00;95013.91;4977950;28;1176518;-70
2024/02/23 03:53:37;;;;;;;1.95;0.82;;;;;;;3.54;100.00;95007.91;5027775;28;20199;-68
2024/02/23 03:56:03;;;;;;;2.65;0.80;;;;;;;3.52;100.00;95002.84;5015791;28;20128;-70
2024/02/23 03:58:29;;;;;;;2.92;0.70;;;;;;;3.42;100.00;94989.91;4990429;28;20408;-68
2024/02/23 04:00:54;;;;;;;3.55;0.70;;;;;;;3.51;100.00;94978.84;5021248;28;20557;-68
2024/02/23 04:03:20;;;;;;;3.58;0.90;;;;;;;3.49;100.00;94983.84;5007021;28;21692;-68
2024/02/23 04:05:45;;;;;;;2.72;0.80;;;;;;;3.44;100.00;94976.81;5019497;28;20075;-67
2024/02/23 04:08:11;;;;;;;3.78;0.70;;;;;;;3.39;100.00;94983.31;5014730;28;20048;-68
2024/02/23 04:10:37;;;;;;;1.67;0.80;;;;;;;3.36;100.00;94978.63;5000137;28;20044;-68
2024/02/23 04:13:03;;;;;;;1.02;0.70;;;;;;;3.30;100.00;94974.66;5019285;28;20049;-70
2024/02/23 04:15:29;;;;;;;2.10;0.80;;;;;;;3.25;100.00;94975.72;5004572;28;20037;-68
2024/02/23 04:17:54;;;;;;;3.05;0.77;;;;;;;3.37;100.00;94971.28;5023592;28;20049;-68
2024/02/23 04:20:19;;;;;;;4.20;0.70;;;;;;;3.32;100.00;94966.19;5007080;28;20136;-67
2024/02/23 04:22:46;;;;;;;6.50;0.93;;;;;;;3.22;100.00;94965.66;5033200;28;20049;-67
2024/02/23 04:25:11;;;;;;;2.88;0.90;;;;;;;3.19;100.00;94960.94;5014174;28;20037;-68
2024/02/23 04:27:37;;;;;;;1.88;0.70;;;;;;;3.25;100.00;94974.97;5018355;28;20103;-69
2024/02/23 04:30:03;;;;;;;3.67;0.93;;;;;;;3.16;100.00;94960.91;5014488;28;20427;-69
2024/02/23 04:32:28;;;;;;;0.73;0.70;;;;;;;3.22;100.00;94973.75;5010168;28;20041;-68
2024/02/23 04:34:55;;;;;;;1.45;0.70;;;;;;;3.21;100.00;94964.06;5018871;28;20141;-68
2024/02/23 04:37:20;;;;;;;1.85;0.82;;;;;;;3.24;100.00;94965.25;5011539;28;20042;-70
2024/02/23 04:39:46;;;;;;;2.28;0.90;;;;;;;3.15;100.00;94965.53;4999633;28;20080;-68
2024/02/23 04:42:11;;;;;;;5.13;0.80;;;;;;;3.17;100.00;94974.06;5011121;28;20137;-68
2024/02/23 04:44:36;;;;;;;1.27;0.90;;;;;;;3.23;100.00;94980.72;5018820;28;20124;-68
2024/02/23 04:47:02;;;;;;;6.55;1.58;;;;;;;3.30;100.00;94973.88;5016275;28;20132;-69
2024/02/23 04:49:28;;;;;;;4.22;1.10;;;;;;;3.24;100.00;94967.97;5012911;28;20488;-70
2024/02/23 04:51:54;;;;;;;2.80;0.90;;;;;;;3.32;100.00;94960.78;5001897;28;20173;-71
2024/02/23 04:54:20;;;;;;;0.80;0.80;;;;;;;3.23;100.00;94955.59;5011461;28;20560;-71
2024/02/23 04:56:47;;;;;;;1.65;0.93;;;;;;;3.18;100.00;94964.00;5019665;28;20095;-68
2024/02/23 04:59:13;;;;;;;2.42;1.00;;;;;;;3.22;100.00;94971.06;5017066;28;20046;-69
2024/02/23 05:01:38;;;;;;;0.80;0.70;;;;;;;3.24;100.00;94984.19;5024991;28;20044;-71
2024/02/23 05:04:03;;;;;;;4.53;0.80;;;;;;;3.13;100.00;94997.53;5016206;28;20045;-67
2024/02/23 05:06:29;;;;;;;1.80;0.77;;;;;;;3.13;100.00;95005.66;5029582;28;20049;-70
2024/02/23 05:08:55;;;;;;;4.93;0.98;;;;;;;3.16;100.00;94990.66;5013232;28;20149;-71
2024/02/23 05:11:20;;;;;;;1.55;0.70;;;;;;;3.14;100.00;94987.53;5014276;28;20436;-71
2024/02/23 05:13:46;;;;;;;1.35;0.90;;;;;;;3.09;100.00;94972.38;5031688;28;20057;-72
2024/02/23 05:16:13;;;;;;;2.50;0.82;;;;;;;3.14;100.00;94984.81;5017505;28;20050;-71
2024/02/23 05:18:38;;;;;;;1.73;0.73;;;;;;;3.22;100.00;94992.72;5018621;28;20096;-71
2024/02/23 05:21:04;;;;;;;2.63;0.77;;;;;;;3.25;100.00;94991.19;5012804;28;20046;-70
2024/02/23 05:23:29;;;;;;;3.10;0.90;;;;;;;3.30;100.00;94990.13;5026256;28;20037;-70
2024/02/23 05:25:54;;;;;;;2.25;1.00;;;;;;;3.32;100.00;94982.41;5019572;28;20034;-70
2024/02/23 05:28:20;;;;;;;3.00;1.13;;;;;;;3.33;100.00;94971.25;5013912;28;20051;-70
2024/02/23 05:30:45;;;;;;;3.00;0.70;;;;;;;3.47;100.00;94967.97;5013889;28;20050;-70
2024/02/23 05:33:11;;;;;;;1.80;0.95;;;;;;;3.40;100.00;94978.66;5017462;28;20080;-70
2024/02/23 05:35:36;;;;;;;1.70;0.88;;;;;;;3.39;100.00;94971.72;5026119;28;20044;-70
2024/02/23 05:38:02;;;;;;;1.30;0.80;;;;;;;3.50;100.00;94963.75;5016924;28;20045;-68
2024/02/23 05:40:27;;;;;;;1.60;0.70;;;;;;;3.40;100.00;94968.66;5016321;28;20110;-69
2024/02/23 05:42:53;;;;;;;1.00;0.77;;;;;;;3.25;100.00;94966.84;5010196;28;20080;-70
2024/02/23 05:45:19;;;;;;;1.90;0.63;;;;;;;3.27;100.00;94980.00;4998851;28;20049;-70
2024/02/23 05:47:44;;;;;;;2.38;0.82;;;;;;;3.28;100.00;94979.66;5039889;28;20523;-71
2024/02/23 05:50:09;;;;;;;2.08;0.80;;;;;;;3.24;100.00;94984.19;5007674;28;20595;-69
2024/02/23 05:52:36;;;;;;;1.60;0.85;;;;;;;3.35;100.00;94979.78;5021660;28;20045;-69
2024/02/23 05:55:05;;;;;;;0.73;0.70;;;;;;;3.46;100.00;94982.66;5028579;28;20105;-68
2024/02/23 05:57:31;;;;;;;1.08;0.80;;;;;;;3.56;100.00;94994.78;5022069;28;20041;-69
2024/02/23 05:59:56;;;;;;;5.40;1.00;;;;;;;3.48;100.00;94983.06;5021931;28;20045;-69
2024/02/23 06:02:22;;;;;;;4.53;0.90;;;;;;;3.50;100.00;94969.94;5016334;28;20046;-71
2024/02/23 06:04:48;;;;;;;1.25;0.80;;;;;;;3.54;100.00;94970.78;5027332;28;20045;-72
2024/02/23 06:07:17;;;;;;;4.20;0.98;;;;;;;3.47;100.00;94961.78;5017522;28;20045;-71
2024/02/23 06:09:45;;;;;;;3.10;1.02;;;;;;;3.52;100.00;94962.25;5014596;28;20048;-68
2024/02/23 06:12:11;;;;;;;1.48;0.80;;;;;;;3.55;100.00;94953.41;5008464;28;20038;-71
2024/02/23 06:14:36;;;;;;;3.90;1.30;;;;;;;3.45;100.00;94954.78;5014118;28;20041;-71
2024/02/23 06:17:02;;;;;;;1.17;0.75;;;;;;;3.46;100.00;94950.16;5011390;28;20555;-69
2024/02/23 06:19:28;;;;;;;3.45;1.33;;;;;;;3.45;100.00;94959.41;4992572;28;20732;-71
2024/02/23 06:21:54;;;;;;;2.17;1.23;;;;;;;3.49;100.00;94981.13;5020467;28;20049;-71
2024/02/23 06:24:19;;;;;;;1.92;0.80;;;;;;;3.64;100.00;94991.06;5012735;28;20132;-69
2024/02/23 06:26:46;;;;;;;1.88;0.80;;;;;;;3.80;100.00;94999.81;5013092;28;20073;-71
2024/02/23 06:29:12;;;;;;;3.22;1.08;;;;;;;3.77;100.00;95005.16;5007810;28;20065;-69
2024/02/23 06:31:38;;;;;;;1.00;0.80;;;;;;;3.53;100.00;95003.63;5020791;28;20045;-69
2024/02/23 06:34:08;;;;;;;3.17;0.90;;;;;;;3.57;100.00;95002.53;5008441;28;20149;-68
2024/02/23 06:36:33;;;;;;;2.65;1.02;;;;;;;3.59;100.00;94999.47;5024645;28;20083;-68
2024/02/23 06:38:58;;;;;;;1.73;0.88;;;;;;;3.57;100.00;94991.72;5016791;28;20042;-69
2024/02/23 06:41:24;;;;;;;3.75;0.98;;;;;;;3.70;100.00;94983.41;4996772;28;20077;-69
2024/02/23 06:43:49;;;;;;;5.70;1.52;;;;;;;3.71;100.00;94990.34;5016171;28;20057;-69
2024/02/23 06:46:14;;;;;;;3.17;1.20;;;;;;;3.76;100.00;94993.56;5003616;28;20042;-69
2024/02/23 06:48:40;;;;;;;4.45;1.02;;;;;;;3.87;100.00;94991.00;5024963;28;20046;-70
2024/02/23 06:51:09;;;;;;;3.53;1.45;;;;;;;3.82;100.00;94994.03;5010936;28;20682;-69
2024/02/23 06:53:35;;;;;;;1.87;1.27;;;;;;;3.93;100.00;94999.59;5020317;28;20163;-69
2024/02/23 06:56:00;;;;;;;3.85;1.60;;;;;;;3.96;100.00;94996.13;5012321;28;20601;-68
2024/02/23 06:58:26;;;;;;;3.85;2.17;;;;;;;4.04;100.00;94997.81;5015864;28;20064;-69
2024/02/23 07:00:52;;;;;;;6.07;2.20;;;;;;;4.08;100.00;95009.47;5014232;28;20052;-70
2024/02/23 07:03:17;;;;;;;4.68;1.90;;;;;;;4.10;100.00;95011.81;4999243;28;20378;-70
2024/02/23 07:05:43;;;;;;;2.38;1.40;;;;;;;4.12;100.00;95013.00;5028459;28;20041;-69
2024/02/23 07:08:08;;;;;;;3.53;1.95;;;;;;;4.13;100.00;95011.09;5015843;28;20052;-70
2024/02/23 07:10:34;;;;;;;7.65;2.63;;;;;;;4.02;100.00;95016.38;5016493;28;20029;-68
2024/02/23 07:12:59;;;;;;;3.38;2.17;;;;;;;4.14;100.00;95004.53;5034759;28;20084;-70
2024/02/23 07:15:25;;;;;;;3.28;1.85;;;;;;;4.14;100.00;95009.94;5026012;28;20739;-70
2024/02/23 07:17:51;;;;;;;5.15;2.00;;;;;;;4.18;100.00;95002.66;5026060;28;20440;-70
2024/02/23 07:20:17;;;;;;;4.15;2.30;;;;;;;4.11;100.00;94989.78;4994248;28;20567;-69
2024/02/23 07:22:44;;;;;;;5.90;3.40;;;;;;;4.09;100.00;94983.16;5019936;28;20048;-71
2024/02/23 07:25:10;;;;;;;10.20;4.78;;;;;;;4.19;100.00;94996.06;5015079;28;20042;-70
2024/02/23 07:27:35;;;;;;;7.55;3.60;;;;;;;4.16;100.00;94999.50;5020184;28;20041;-70
2024/02/23 07:30:00;;;;;;;6.03;3.22;;;;;;;4.30;100.00;95007.06;5019867;28;20041;-71
2024/02/23 07:32:26;;;;;;;4.35;2.72;;;;;;;4.33;100.00;95011.75;5015615;28;20438;-70
2024/02/23 07:34:52;;;;;;;6.95;2.92;;;;;;;4.36;100.00;95013.75;5019937;28;20045;-70
2024/02/23 07:37:18;;;;;;;6.28;2.42;;;;;;;4.27;100.00;95022.13;4988389;28;20543;-70
2024/02/23 07:39:43;;;;;;;6.68;3.42;;;;;;;4.24;100.00;95031.00;5006103;28;20448;-70
2024/02/23 07:42:10;;;;;;;5.35;2.42;;;;;;;4.29;100.00;95038.03;5003579;28;20777;-70
2024/02/23 07:44:37;;;;;;;5.32;2.20;;;;;;;4.37;100.00;95032.31;5016424;28;20476;-70
2024/02/23 07:47:03;;;;;;;3.35;2.15;;;;;;;4.27;100.00;95032.19;5012639;28;20132;-69
2024/02/23 07:49:28;;;;;;;4.25;1.67;;;;;;;4.21;100.00;95035.22;5017500;28;20574;-70
2024/02/23 07:51:54;;;;;;;4.18;2.00;;;;;;;4.18;100.00;95025.13;5013631;28;20045;-71
2024/02/23 07:54:19;;;;;;;3.95;2.05;;;;;;;4.34;100.00;95024.13;5013804;28;20073;-71
2024/02/23 07:56:44;;;;;;;4.13;1.83;;;;;;;4.45;100.00;95032.41;5016001;28;20144;-71
2024/02/23 07:59:10;;;;;;;4.53;1.40;;;;;;;4.52;100.00;95014.34;5006143;28;20076;-70
2024/02/23 08:01:35;;;;;;;3.25;1.13;;;;;;;4.37;100.00;95013.34;5012476;28;20528;-71
2024/02/23 08:04:01;;;;;;;2.38;1.27;;;;;;;4.35;100.00;95023.00;5025516;28;20477;-70
2024/02/23 08:06:26;;;;;;;6.65;1.30;;;;;;;4.43;100.00;95008.41;5008017;28;20050;-70
2024/02/23 08:08:53;;;;;;;2.65;1.40;;;;;;;4.52;100.00;95005.41;4991303;28;20047;-71
2024/02/23 08:11:19;;;;;;;3.10;0.98;;;;;;;4.52;100.00;95006.19;4994828;28;20041;-71
2024/02/23 08:13:44;;;;;;;5.70;2.20;;;;;;;4.50;100.00;95024.75;5015119;28;20068;-68
2024/02/23 08:16:10;;;;;;;4.57;1.48;;;;;;;4.33;100.00;95026.09;5009619;28;20714;-71
2024/02/23 08:18:36;;;;;;;4.10;1.35;;;;;;;4.34;100.00;95024.13;5007793;28;20068;-69
2024/02/23 08:21:02;;;;;;;2.55;1.40;;;;;;;4.30;100.00;95024.09;5004201;28;20049;-67
2024/02/23 08:23:29;;;;;;;4.43;1.60;;;;;;;4.25;100.00;95024.44;5016451;28;20076;-69
2024/02/23 08:25:56;;;;;;;5.15;1.65;;;;;;;4.20;100.00;95027.47;5024551;28;20037;-69
2024/02/23 08:28:22;;;;;;;5.25;1.42;;;;;;;4.21;100.00;95013.56;5013673;28;20106;-69
2024/02/23 08:30:48;;;;;;;6.50;1.60;;;;;;;4.17;100.00;95004.56;5003784;28;20049;-68
2024/02/23 08:33:13;;;;;;;2.40;1.40;;;;;;;4.29;100.00;95011.72;5014190;28;20051;-68
2024/02/23 08:35:39;;;;;;;2.30;1.27;;;;;;;4.29;100.00;95008.22;5019327;28;20033;-69
2024/02/23 08:38:04;;;;;;;3.20;1.50;;;;;;;4.27;100.00;95008.59;5022874;28;20049;-69
2024/02/23 08:40:30;;;;;;;3.78;1.30;;;;;;;4.20;100.00;95027.47;5002573;28;20046;-70
2024/02/23 08:42:55;;;;;;;4.00;1.45;;;;;;;4.22;100.00;95025.16;5018551;28;20056;-69
2024/02/23 08:45:20;;;;;;;3.13;1.58;;;;;;;4.33;100.00;95017.19;5039071;22;20718;-75
2024/02/23 08:47:46;;;;;;;11.45;1.45;;;;;;;4.38;100.00;95014.16;5039889;28;20042;-76
2024/02/23 08:50:11;;;;;;;4.25;1.67;;;;;;;4.32;100.00;95013.69;5035175;28;20045;-74
2024/02/23 08:52:37;;;;;;;3.55;1.33;;;;;;;4.37;100.00;95018.00;5035344;28;20037;-77
2024/02/23 08:55:03;;;;;;;10.40;1.30;;;;;;;4.49;100.00;95019.72;5020333;28;20049;-74
2024/02/23 08:57:28;;;;;;;4.72;1.40;;;;;;;4.62;100.00;95015.59;4997919;28;20049;-76
2024/02/23 08:59:57;;;;;;;2.78;1.30;;;;;;;4.71;100.00;95018.81;4995223;28;20053;-76
2024/02/23 09:02:23;;;;;;;5.30;1.30;;;;;;;4.85;100.00;95018.19;5017125;28;20056;-77
2024/02/23 09:04:48;;;;;;;3.47;1.20;;;;;;;4.93;100.00;95024.47;5008273;28;20047;-77
2024/02/23 09:07:13;;;;;;;2.15;1.10;;;;;;;5.14;100.00;95022.00;4997103;28;20054;-77
2024/02/23 09:09:39;;;;;;;3.05;1.20;;;;;;;5.07;100.00;95021.91;5030301;28;20045;-77
2024/02/23 09:12:06;;;;;;;2.60;1.30;;;;;;;5.06;100.00;95012.22;5018288;28;20407;-77
2024/02/23 09:14:32;;;;;;;6.30;1.20;;;;;;;5.26;100.00;95017.47;5021399;28;20072;-76
2024/02/23 09:16:58;;;;;;;5.80;2.17;;;;;;;5.26;100.00;95014.75;5016546;28;20084;-76
2024/02/23 09:19:23;;;;;;;4.57;1.23;;;;;;;5.34;100.00;95016.38;5006346;28;20084;-77
2024/02/23 09:21:49;;;;;;;3.13;1.35;;;;;;;5.35;100.00;95015.22;5008860;28;20061;-74
2024/02/23 09:24:14;;;;;;;6.35;1.60;;;;;;;5.35;100.00;95015.22;5007641;28;20042;-74
2024/02/23 09:26:40;;;;;;;2.97;1.15;;;;;;;5.48;100.00;95013.78;5021141;28;20717;-75
2024/02/23 09:29:05;;;;;;;1.20;1.00;;;;;;;5.47;100.00;95022.31;5016394;28;20116;-75
2024/02/23 09:31:31;;;;;;;2.15;1.23;;;;;;;5.39;100.00;95023.41;5012359;28;20446;-75
2024/02/23 09:33:58;;;;;;;2.20;1.20;;;;;;;5.43;100.00;95024.22;5017422;28;20072;-74
2024/02/23 09:36:23;;;;;;;3.20;1.40;;;;;;;5.26;100.00;95014.75;5002661;28;20760;-74
2024/02/23 09:38:50;;;;;;;2.17;1.23;;;;;;;5.23;100.00;95018.22;5013292;28;20085;-74
2024/02/23 09:41:23;;;;;;;3.00;1.40;;;;;;;5.27;100.00;95013.59;5001581;28;20068;-74
2024/02/23 09:43:49;;;;;;;5.40;1.40;;;;;;;5.38;100.00;95016.41;5015342;28;20045;-74
2024/02/23 09:46:18;;;;;;;6.72;1.60;;;;;;;5.41;100.00;95024.56;5010453;28;20057;-74
2024/02/23 09:48:45;;;;;;;6.73;1.43;;;;;;;5.38;100.00;95025.31;5026433;28;20091;-74
2024/02/23 09:51:12;;;;;;;4.75;1.60;;;;;;;5.25;100.00;95027.53;5036491;28;20296;-74
2024/02/23 09:53:38;;;;;;;8.05;1.50;;;;;;;5.20;100.00;95021.66;5016407;28;20071;-73
2024/02/23 09:56:05;;;;;;;5.00;1.60;;;;;;;5.08;100.00;95020.00;5016765;28;20376;-75
2024/02/23 09:58:32;;;;;;;2.90;1.42;;;;;;;5.17;100.00;95009.63;5023573;28;20144;-76
2024/02/23 10:00:58;;;;;;;6.72;2.05;;;;;;;5.23;100.00;95013.56;5018209;28;20106;-75
2024/02/23 10:03:30;;;;;;;3.90;1.50;;;;;;;5.43;100.00;95014.13;5016788;28;20037;-74
2024/02/23 10:05:56;;;;;;;5.78;1.90;;;;;;;5.59;100.00;95013.09;5042919;28;20085;-76
2024/02/23 10:08:22;;;;;;;4.82;1.90;;;;;;;5.73;100.00;95016.72;5039702;28;20155;-75
2024/02/23 10:10:50;;;;;;;6.68;1.80;;;;;;;5.73;100.00;95018.66;5039070;28;20052;-77
2024/02/23 10:13:20;;;;;;;3.85;1.73;;;;;;;5.72;100.00;95019.78;5025818;28;20076;-77
2024/02/23 10:15:46;;;;;;;7.25;1.60;;;;;;;5.64;100.00;95026.34;5016489;28;20033;-75
2024/02/23 10:18:12;;;;;;;5.13;2.08;;;;;;;5.73;100.00;95024.09;5016780;28;20124;-76
2024/02/23 10:20:38;;;;;;;11.63;2.10;;;;;;;5.70;100.00;95022.88;5019573;28;20136;-76
2024/02/23 10:23:04;;;;;;;9.05;2.33;;;;;;;5.73;100.00;95019.44;5013906;28;20052;-77
2024/02/23 10:25:29;;;;;;;3.67;1.70;;;;;;;5.68;100.00;95016.28;5017259;28;20033;-76
2024/02/23 10:27:55;;;;;;;5.07;1.40;;;;;;;5.69;100.00;95015.09;5020187;28;20077;-77
2024/02/23 10:30:21;;;;;;;2.70;1.70;;;;;;;5.65;100.00;95015.06;5017943;28;20057;-78
2024/02/23 10:32:46;;;;;;;5.82;1.80;;;;;;;5.49;100.00;95014.56;5021819;28;20044;-75
2024/02/23 10:35:16;;;;;;;6.88;2.60;;;;;;;5.51;100.00;95020.38;5018488;28;20041;-75
2024/02/23 10:37:50;;;;;;;9.30;2.65;;;;;;;5.74;100.00;95015.56;5021637;28;20034;-75
2024/02/23 10:40:17;;;;;;;4.55;1.45;;;;;;;5.80;100.00;95004.31;5016664;28;20041;-73
2024/02/23 10:42:53;;;;;;;4.85;1.60;;;;;;;5.77;100.00;95005.09;5007832;28;20364;-73
2024/02/23 10:45:21;;;;;;;3.47;1.40;;;;;;;5.71;100.00;95016.31;5012668;28;20081;-74
2024/02/23 10:47:51;;;;;;;5.63;1.75;;;;;;;5.56;100.00;95020.03;5025121;28;20049;-73
2024/02/23 10:50:19;;;;;;;8.10;1.40;;;;;;;5.38;100.00;95017.16;5021713;28;20113;-74
2024/02/23 10:52:45;;;;;;;8.18;1.52;;;;;;;5.38;100.00;95019.13;5024263;28;20046;-73
2024/02/23 10:55:11;;;;;;;6.82;1.52;;;;;;;5.43;100.00;95024.97;5006273;28;20483;-74
2024/02/23 10:57:37;;;;;;;7.97;1.30;;;;;;;5.47;100.00;95025.78;5021479;28;20077;-75
2024/02/23 11:00:09;;;;;;;7.35;1.58;;;;;;;5.58;100.00;95027.81;5017499;28;20033;-74
2024/02/23 11:02:55;;;;;;;9.02;1.50;;;;;;;5.51;100.00;95034.75;5018212;28;20455;-75
2024/02/23 11:05:23;;;;;;;10.27;1.90;;;;;;;5.39;100.00;95029.59;5005371;28;20585;-74
2024/02/23 11:07:49;;;;;;;3.10;1.33;;;;;;;5.50;100.00;95030.47;5003844;28;20694;-76
2024/02/23 11:10:15;;;;;;;4.55;1.20;;;;;;;5.61;100.00;95029.81;5016282;28;20128;-74
2024/02/23 11:12:41;;;;;;;5.65;1.50;;;;;;;5.44;100.00;95025.75;5011962;28;20030;-73
2024/02/23 11:15:06;;;;;;;9.05;1.88;;;;;;;5.59;100.00;95023.97;5014173;28;20045;-75
2024/02/23 11:17:34;;;;;;;5.82;1.20;;;;;;;5.51;100.00;95014.97;5019527;28;20153;-74
2024/02/23 11:20:03;;;;;;;4.00;1.10;;;;;;;5.63;100.00;95016.63;5002381;28;20145;-74
2024/02/23 11:22:37;;;;;;;5.60;1.50;;;;;;;5.90;100.00;95019.94;5020427;28;20037;-73
2024/02/23 11:25:05;;;;;;;3.47;1.30;;;;;;;6.01;100.00;95009.16;5015708;28;20132;-71
2024/02/23 11:27:32;;;;;;;5.57;1.25;;;;;;;6.05;100.00;95009.97;5005550;28;20053;-74
2024/02/23 11:30:05;;;;;;;3.33;1.27;;;;;;;6.18;100.00;95005.78;5004068;28;20244;-74